Ault, Minnesota
Current Conditions -  °F | °C
As of 9:54 AM on Thursday 23 Oct 2014 (Local Time) from KTWM Reporting Station
Haze Haze  
Wind Chill: 50°   Ceiling: 500
Heat Index: 50°   Visibility: 5mi
Dew Point: 39°   Wind: 0mph
Humidity: 66%   Direction: NA
Pressure: 29.96"   Gusts: NA
Location:  47.3998°N, 91.9141°W
Report Text: KTWM 231454Z AUTO 00000KT 5SM HZ OVC005 10/04 A2996 RMK AO2
Loading
Personal Weather Stations






























Interactive Weather Map
Tropical Storm Tracking
New forecast layout! Learn more

10-Day Weather Forecast

Advertisements
Track Severe Weather on mobile